Time;durP1;ratioP1;P1;durP2;ratioP2;P2;SDS_P1;SDS_P2;PMS_P1;PMS_P2;Temp;Humidity;BMP_temperature;BMP_pressure;BME280_temperature;BME280_humidity;BME280_pressure;Samples;Min_cycle;Max_cycle;Signal;HPM_P1;HPM_P2
2022/05/05 00:01:01;;;;;;;17.38;7.43;;;;;;;;;;5067472;28;20168;-62
2022/05/05 00:03:27;;;;;;;18.42;7.72;;;;;;;;;;5067516;28;20049;-62
2022/05/05 00:05:54;;;;;;;22.30;7.70;;;;;;;;;;5053375;28;20092;-62
2022/05/05 00:08:21;;;;;;;19.95;7.47;;;;;;;;;;5048727;28;20057;-62
2022/05/05 00:16:17;;;;;;;16.38;7.30;;;;;;;;;;5054451;28;20576;-61
2022/05/05 00:18:43;;;;;;;14.80;7.50;;;;;;;;;;5049000;28;20604;-62
2022/05/05 00:21:10;;;;;;;19.20;8.02;;;;;;;;;;5049318;28;20140;-62
2022/05/05 00:23:36;;;;;;;14.00;7.25;;;;;;;;;;5048801;28;20147;-62
2022/05/05 00:26:02;;;;;;;16.35;7.55;;;;;;;;;;5063040;28;20081;-62
2022/05/05 00:28:29;;;;;;;14.55;7.45;;;;;;;;;;5051182;28;20080;-62
2022/05/05 00:30:55;;;;;;;18.55;7.53;;;;;;;;;;5058916;28;20504;-62
2022/05/05 00:33:22;;;;;;;16.80;7.40;;;;;;;;;;5069178;28;20157;-62
2022/05/05 00:35:48;;;;;;;17.20;7.07;;;;;;;;;;5063992;28;20084;-61
2022/05/05 00:38:14;;;;;;;19.95;7.43;;;;;;;;;;5046811;28;20072;-61
2022/05/05 00:40:41;;;;;;;16.38;8.00;;;;;;;;;;5056253;28;20144;-62
2022/05/05 00:43:07;;;;;;;21.35;7.78;;;;;;;;;;5058448;28;20532;-61
2022/05/05 00:45:34;;;;;;;19.23;7.97;;;;;;;;;;5060216;28;20570;-62
2022/05/05 00:48:07;;;;;;;15.07;7.30;;;;;;;;;;5051639;28;20097;-62
2022/05/05 00:50:34;;;;;;;19.02;7.72;;;;;;;;;;5055730;28;20139;-61
2022/05/05 00:53:02;;;;;;;14.45;7.55;;;;;;;;;;5048796;28;20136;-62
2022/05/05 00:55:31;;;;;;;18.95;8.23;;;;;;;;;;5055734;28;20519;-62
2022/05/05 00:57:58;;;;;;;15.45;7.32;;;;;;;;;;5063311;28;20177;-61
2022/05/05 01:00:24;;;;;;;16.27;7.28;;;;;;;;;;5053161;28;20136;-62
2022/05/05 01:02:52;;;;;;;17.63;8.13;;;;;;;;;;5065542;28;20057;-62
2022/05/05 01:05:18;;;;;;;17.15;7.68;;;;;;;;;;5059876;28;20132;-61
2022/05/05 01:07:45;;;;;;;19.10;8.00;;;;;;;;;;5066280;28;20133;-61
2022/05/05 01:10:12;;;;;;;18.58;8.20;;;;;;;;;;5061086;28;20128;-61
2022/05/05 01:12:38;;;;;;;17.77;8.43;;;;;;;;;;5048017;28;20596;-61
2022/05/05 01:15:05;;;;;;;17.05;8.50;;;;;;;;;;5056731;28;20164;-61
2022/05/05 01:17:32;;;;;;;19.27;8.05;;;;;;;;;;5065674;28;20565;-61
2022/05/05 01:20:09;;;;;;;18.52;8.52;;;;;;;;;;5067679;28;20049;-61
2022/05/05 01:22:35;;;;;;;17.90;8.63;;;;;;;;;;5060208;28;20176;-62
2022/05/05 01:30:31;;;;;;;18.17;8.05;;;;;;;;;;5056566;28;20568;-62
2022/05/05 01:32:58;;;;;;;16.15;8.15;;;;;;;;;;5053993;28;20143;-62
2022/05/05 01:35:24;;;;;;;18.73;8.00;;;;;;;;;;5061804;28;20494;-61
2022/05/05 01:37:50;;;;;;;19.17;8.50;;;;;;;;;;5053548;28;20107;-61
2022/05/05 01:40:17;;;;;;;14.98;7.75;;;;;;;;;;5063968;28;20635;-61
2022/05/05 01:42:44;;;;;;;15.18;7.82;;;;;;;;;;5048057;28;20061;-61
2022/05/05 01:45:10;;;;;;;20.73;7.82;;;;;;;;;;5063626;28;20076;-61
2022/05/05 01:47:37;;;;;;;16.95;7.25;;;;;;;;;;5046583;28;20547;-62
2022/05/05 01:50:03;;;;;;;15.48;7.82;;;;;;;;;;5047212;28;20093;-62
2022/05/05 01:52:30;;;;;;;14.70;7.82;;;;;;;;;;5056464;28;20517;-61
2022/05/05 01:54:56;;;;;;;15.70;7.50;;;;;;;;;;5061249;28;20939;-61
2022/05/05 01:57:22;;;;;;;16.38;8.65;;;;;;;;;;5068001;28;20148;-61
2022/05/05 01:59:49;;;;;;;16.33;7.93;;;;;;;;;;5050696;28;20144;-61
2022/05/05 02:02:16;;;;;;;16.38;7.40;;;;;;;;;;5050741;28;20468;-61
2022/05/05 02:04:42;;;;;;;17.90;7.78;;;;;;;;;;5055785;28;20054;-61
2022/05/05 02:07:08;;;;;;;17.17;7.47;;;;;;;;;;5046838;28;20100;-61
2022/05/05 02:09:35;;;;;;;17.85;8.30;;;;;;;;;;5066751;28;20148;-61
2022/05/05 02:12:02;;;;;;;17.08;7.88;;;;;;;;;;5067645;28;20073;-61
2022/05/05 02:14:28;;;;;;;16.02;7.55;;;;;;;;;;5065009;28;20141;-62
2022/05/05 02:16:55;;;;;;;17.58;7.75;;;;;;;;;;5047066;28;20467;-61
2022/05/05 02:19:21;;;;;;;16.75;7.95;;;;;;;;;;5062798;28;20107;-61
2022/05/05 02:21:47;;;;;;;15.10;7.78;;;;;;;;;;5051231;28;20057;-61
2022/05/05 02:24:13;;;;;;;14.82;7.50;;;;;;;;;;5058205;28;20076;-61
2022/05/05 02:26:41;;;;;;;20.48;8.65;;;;;;;;;;5067187;28;20049;-61
2022/05/05 02:29:07;;;;;;;18.60;7.80;;;;;;;;;;5066137;28;20144;-62
2022/05/05 02:31:33;;;;;;;18.10;7.45;;;;;;;;;;5058605;28;20476;-61
2022/05/05 02:34:00;;;;;;;17.05;7.53;;;;;;;;;;5050137;28;20049;-61
2022/05/05 02:39:11;;;;;;;14.55;7.72;;;;;;;;;;5047523;28;20146;-62
2022/05/05 02:41:37;;;;;;;16.83;7.68;;;;;;;;;;5060578;28;20177;-61
2022/05/05 02:44:04;;;;;;;12.40;6.90;;;;;;;;;;5057350;28;20076;-61
2022/05/05 02:46:32;;;;;;;21.08;7.93;;;;;;;;;;5065768;28;20151;-62
2022/05/05 02:48:58;;;;;;;18.65;8.05;;;;;;;;;;5065834;28;20057;-61
2022/05/05 02:51:25;;;;;;;15.13;7.45;;;;;;;;;;5054526;28;20152;-62
2022/05/05 02:56:36;;;;;;;14.77;7.88;;;;;;;;;;5062590;28;20057;-61
2022/05/05 02:59:02;;;;;;;17.40;7.50;;;;;;;;;;5047736;28;20061;-61
2022/05/05 03:01:29;;;;;;;19.02;8.57;;;;;;;;;;5061058;28;20084;-61
2022/05/05 03:03:55;;;;;;;17.30;8.07;;;;;;;;;;5051309;28;20057;-61
2022/05/05 03:06:21;;;;;;;20.42;8.18;;;;;;;;;;5054323;28;20088;-61
2022/05/05 03:08:48;;;;;;;17.23;8.52;;;;;;;;;;5056576;28;20155;-61
2022/05/05 03:11:14;;;;;;;21.63;8.75;;;;;;;;;;5051465;28;20260;-62
2022/05/05 03:13:41;;;;;;;17.50;8.27;;;;;;;;;;5059868;28;20144;-61
2022/05/05 03:16:07;;;;;;;17.55;7.75;;;;;;;;;;5058778;28;20088;-61
2022/05/05 03:18:33;;;;;;;19.50;7.70;;;;;;;;;;5063460;28;20527;-61
2022/05/05 03:21:00;;;;;;;18.65;7.88;;;;;;;;;;5066441;28;20053;-62
2022/05/05 03:23:26;;;;;;;15.73;8.10;;;;;;;;;;5053958;28;20561;-61
2022/05/05 03:25:52;;;;;;;17.88;8.05;;;;;;;;;;5065453;28;20584;-62
2022/05/05 03:28:19;;;;;;;16.85;8.40;;;;;;;;;;5047602;28;20152;-61
2022/05/05 03:30:45;;;;;;;22.98;8.77;;;;;;;;;;5059163;28;20187;-61
2022/05/05 03:33:11;;;;;;;15.48;7.68;;;;;;;;;;5049784;28;20069;-61
2022/05/05 03:35:38;;;;;;;15.40;7.75;;;;;;;;;;5049140;28;20591;-61
2022/05/05 03:38:05;;;;;;;18.02;7.63;;;;;;;;;;5051103;28;20573;-61
2022/05/05 03:40:31;;;;;;;14.80;7.30;;;;;;;;;;5053852;28;20602;-61
2022/05/05 03:42:57;;;;;;;17.30;7.68;;;;;;;;;;5047694;28;20204;-61
2022/05/05 03:45:24;;;;;;;14.82;7.75;;;;;;;;;;5047177;28;20138;-61
2022/05/05 03:47:50;;;;;;;18.10;8.15;;;;;;;;;;5062598;28;20111;-61
2022/05/05 03:50:16;;;;;;;19.27;7.10;;;;;;;;;;5052955;28;20080;-62
2022/05/05 03:52:43;;;;;;;15.90;7.28;;;;;;;;;;5058202;28;20072;-61
2022/05/05 03:55:09;;;;;;;15.77;8.20;;;;;;;;;;5065924;28;20107;-61
2022/05/05 03:57:35;;;;;;;18.70;7.95;;;;;;;;;;5075103;28;20079;-62
2022/05/05 04:00:03;;;;;;;13.05;6.78;;;;;;;;;;5073719;28;20104;-61
2022/05/05 04:02:30;;;;;;;14.68;7.07;;;;;;;;;;5070562;28;20076;-61
2022/05/05 04:04:56;;;;;;;15.98;7.18;;;;;;;;;;5069750;28;20045;-61
2022/05/05 04:07:22;;;;;;;14.60;7.05;;;;;;;;;;5069444;28;20134;-61
2022/05/05 04:09:49;;;;;;;12.27;6.43;;;;;;;;;;5076043;28;20092;-61
2022/05/05 04:12:16;;;;;;;13.25;6.65;;;;;;;;;;5085021;28;20049;-62
2022/05/05 04:14:42;;;;;;;13.88;6.40;;;;;;;;;;5068984;28;20077;-61
2022/05/05 04:17:08;;;;;;;12.32;6.15;;;;;;;;;;5069600;28;20087;-61
2022/05/05 04:19:36;;;;;;;14.00;6.50;;;;;;;;;;5070596;28;20084;-61
2022/05/05 04:22:02;;;;;;;14.18;6.40;;;;;;;;;;5066575;28;20846;-62
2022/05/05 04:24:28;;;;;;;13.05;6.68;;;;;;;;;;5056813;28;20080;-62
2022/05/05 04:26:55;;;;;;;11.57;6.13;;;;;;;;;;5053913;28;20092;-62
2022/05/05 04:29:21;;;;;;;16.13;6.47;;;;;;;;;;5047063;28;20504;-62
2022/05/05 04:31:49;;;;;;;12.95;6.93;;;;;;;;;;5056156;28;20056;-62
2022/05/05 04:34:16;;;;;;;12.88;6.30;;;;;;;;;;5057287;28;20081;-62
2022/05/05 04:36:42;;;;;;;12.48;6.20;;;;;;;;;;5059741;28;20073;-62
2022/05/05 04:39:08;;;;;;;14.25;7.03;;;;;;;;;;5050517;28;20084;-62
2022/05/05 04:41:35;;;;;;;15.75;6.90;;;;;;;;;;5047333;28;20053;-62
2022/05/05 04:44:01;;;;;;;12.35;7.35;;;;;;;;;;5064815;28;20136;-62
2022/05/05 04:46:27;;;;;;;17.85;7.68;;;;;;;;;;5043101;28;20484;-62
2022/05/05 04:48:54;;;;;;;14.80;7.55;;;;;;;;;;5056324;28;20155;-62
2022/05/05 04:51:20;;;;;;;16.20;7.70;;;;;;;;;;5053362;28;20054;-62
2022/05/05 04:53:46;;;;;;;17.23;7.75;;;;;;;;;;5067006;28;20182;-62
2022/05/05 04:56:14;;;;;;;12.25;7.13;;;;;;;;;;5065164;28;20530;-62
2022/05/05 04:58:41;;;;;;;15.93;8.02;;;;;;;;;;5067825;28;20057;-62
2022/05/05 05:01:07;;;;;;;19.73;8.00;;;;;;;;;;5060314;28;20076;-62
2022/05/05 05:03:35;;;;;;;19.27;8.38;;;;;;;;;;5054039;28;20057;-62
2022/05/05 05:06:02;;;;;;;;;;;;;;;;;;5050971;28;20576;-62
2022/05/05 05:08:29;;;;;;;21.92;9.40;;;;;;;;;;5047554;28;45840;-62
2022/05/05 05:10:56;;;;;;;15.98;8.55;;;;;;;;;;5056320;28;20119;-62
2022/05/05 05:13:22;;;;;;;20.83;8.55;;;;;;;;;;5047286;28;20049;-62
2022/05/05 05:15:49;;;;;;;22.73;9.80;;;;;;;;;;5055318;28;20590;-62
2022/05/05 05:18:15;;;;;;;20.58;9.23;;;;;;;;;;5069033;28;20408;-62
2022/05/05 05:20:41;;;;;;;21.40;9.38;;;;;;;;;;5069216;28;20076;-62
2022/05/05 05:23:08;;;;;;;22.08;9.45;;;;;;;;;;5067833;28;20140;-62
2022/05/05 05:25:35;;;;;;;19.58;8.75;;;;;;;;;;5069072;28;20081;-62
2022/05/05 05:28:04;;;;;;;20.05;9.20;;;;;;;;;;5068697;28;20055;-62
2022/05/05 05:30:37;;;;;;;18.63;9.23;;;;;;;;;;5062097;28;20119;-62
2022/05/05 05:33:04;;;;;;;17.20;8.75;;;;;;;;;;5059009;28;20656;-62
2022/05/05 05:35:30;;;;;;;16.52;8.80;;;;;;;;;;5056043;28;20542;-62
2022/05/05 05:37:57;;;;;;;16.90;8.63;;;;;;;;;;5058284;28;20084;-62
2022/05/05 05:40:23;;;;;;;21.77;9.35;;;;;;;;;;5052081;28;20145;-62
2022/05/05 05:42:49;;;;;;;20.15;8.65;;;;;;;;;;5042387;28;20076;-61
2022/05/05 05:45:16;;;;;;;19.92;9.07;;;;;;;;;;5058271;28;20181;-62
2022/05/05 05:47:42;;;;;;;20.25;8.85;;;;;;;;;;5051044;28;20092;-62
2022/05/05 05:50:08;;;;;;;20.52;8.85;;;;;;;;;;5049563;28;20139;-62
2022/05/05 05:52:35;;;;;;;18.45;9.00;;;;;;;;;;5062731;28;20085;-61
2022/05/05 05:55:01;;;;;;;20.92;9.57;;;;;;;;;;5059523;28;20140;-61
2022/05/05 05:57:29;;;;;;;16.85;8.90;;;;;;;;;;5062707;28;20088;-61
2022/05/05 05:59:55;;;;;;;19.15;8.85;;;;;;;;;;5068479;28;20814;-61
2022/05/05 06:05:06;;;;;;;20.15;9.32;;;;;;;;;;5068008;28;20056;-61
2022/05/05 06:07:33;;;;;;;18.70;9.18;;;;;;;;;;5067824;28;20092;-61
2022/05/05 06:09:59;;;;;;;20.63;8.93;;;;;;;;;;5067507;28;20503;-61
2022/05/05 06:12:26;;;;;;;18.15;8.52;;;;;;;;;;5068191;28;20507;-61
2022/05/05 06:14:52;;;;;;;19.40;8.63;;;;;;;;;;5068089;28;20092;-61
2022/05/05 06:17:19;;;;;;;21.90;8.93;;;;;;;;;;5066682;28;20049;-61
2022/05/05 06:19:45;;;;;;;19.13;8.93;;;;;;;;;;5066731;28;20053;-61
2022/05/05 06:22:12;;;;;;;18.20;8.85;;;;;;;;;;5067922;28;20088;-61
2022/05/05 06:24:38;;;;;;;23.48;9.40;;;;;;;;;;5065754;28;20158;-61
2022/05/05 06:27:04;;;;;;;19.48;7.93;;;;;;;;;;5055915;28;20118;-61
2022/05/05 06:29:31;;;;;;;19.67;8.32;;;;;;;;;;5063912;28;20610;-61
2022/05/05 06:31:57;;;;;;;20.40;8.90;;;;;;;;;;5062977;28;20081;-61
2022/05/05 06:34:24;;;;;;;18.52;9.15;;;;;;;;;;5056168;28;20096;-61
2022/05/05 06:36:50;;;;;;;416.27;35.05;;;;;;;;;;5053785;28;20598;-61
2022/05/05 06:39:16;;;;;;;21.42;10.32;;;;;;;;;;5053865;28;20063;-61
2022/05/05 06:41:43;;;;;;;18.55;9.68;;;;;;;;;;5059796;28;20132;-61
2022/05/05 06:44:10;;;;;;;21.45;9.55;;;;;;;;;;5065082;28;20057;-61
2022/05/05 06:46:36;;;;;;;16.95;8.93;;;;;;;;;;5058193;28;20139;-61
2022/05/05 06:49:02;;;;;;;33.83;10.35;;;;;;;;;;5062179;28;20053;-61
2022/05/05 06:51:29;;;;;;;18.50;8.68;;;;;;;;;;5060673;28;20129;-61
2022/05/05 06:53:55;;;;;;;21.33;9.02;;;;;;;;;;5056628;28;20145;-61
2022/05/05 06:56:24;;;;;;;18.83;8.57;;;;;;;;;;5050869;28;20135;-61
2022/05/05 06:58:50;;;;;;;18.98;9.18;;;;;;;;;;5059616;28;20108;-61
2022/05/05 07:06:47;;;;;;;23.73;9.35;;;;;;;;;;5069122;28;20573;-61
2022/05/05 07:11:58;;;;;;;21.48;8.50;;;;;;;;;;5070318;28;20092;-61
2022/05/05 07:14:25;;;;;;;19.63;8.48;;;;;;;;;;5070018;28;20061;-62
2022/05/05 07:16:51;;;;;;;22.30;9.15;;;;;;;;;;5069917;28;20146;-61
2022/05/05 07:19:18;;;;;;;20.23;9.02;;;;;;;;;;5070431;28;20066;-61
2022/05/05 07:21:45;;;;;;;16.25;7.70;;;;;;;;;;5070785;28;20056;-63
2022/05/05 07:24:11;;;;;;;23.17;8.18;;;;;;;;;;5069649;28;20089;-62
2022/05/05 07:26:37;;;;;;;16.52;8.23;;;;;;;;;;5070993;28;20578;-62
2022/05/05 07:29:04;;;;;;;24.30;8.18;;;;;;;;;;5057591;28;20140;-62
2022/05/05 07:31:30;;;;;;;18.40;8.23;;;;;;;;;;5053099;28;20091;-62
2022/05/05 07:33:57;;;;;;;20.02;8.43;;;;;;;;;;5056882;28;20057;-63
2022/05/05 07:36:24;;;;;;;22.95;7.80;;;;;;;;;;5069319;28;20087;-63
2022/05/05 07:38:50;;;;;;;25.30;7.88;;;;;;;;;;5069923;28;20049;-63
2022/05/05 07:41:16;;;;;;;26.23;7.85;;;;;;;;;;5070028;28;20144;-63
2022/05/05 07:43:43;;;;;;;18.77;7.20;;;;;;;;;;5069248;28;20138;-62
2022/05/05 07:46:09;;;;;;;19.13;7.65;;;;;;;;;;5067142;28;20085;-63
2022/05/05 07:48:36;;;;;;;19.13;7.57;;;;;;;;;;5065476;28;20104;-64
2022/05/05 07:51:02;;;;;;;22.17;9.18;;;;;;;;;;5065124;28;20073;-64
2022/05/05 07:53:28;;;;;;;19.52;7.65;;;;;;;;;;5069511;28;20111;-63
2022/05/05 07:55:55;;;;;;;18.60;8.02;;;;;;;;;;5064607;28;20135;-63
2022/05/05 07:58:21;;;;;;;18.20;8.10;;;;;;;;;;5068468;28;20077;-64
2022/05/05 08:00:48;;;;;;;19.98;7.95;;;;;;;;;;5068968;28;20123;-63
2022/05/05 08:03:15;;;;;;;21.42;7.70;;;;;;;;;;5050442;28;20144;-64
2022/05/05 08:05:41;;;;;;;15.27;7.57;;;;;;;;;;5067311;28;20509;-64
2022/05/05 08:08:07;;;;;;;22.08;8.65;;;;;;;;;;5059882;28;20135;-63
2022/05/05 08:10:34;;;;;;;17.30;7.88;;;;;;;;;;5081630;28;20602;-63
2022/05/05 08:13:00;;;;;;;20.25;8.65;;;;;;;;;;5069843;28;20057;-63
2022/05/05 08:15:27;;;;;;;19.95;8.80;;;;;;;;;;5063284;28;20049;-63
2022/05/05 08:17:53;;;;;;;18.48;8.57;;;;;;;;;;5067755;28;20080;-63
2022/05/05 08:20:20;;;;;;;17.73;7.97;;;;;;;;;;5074642;28;20056;-64
2022/05/05 08:22:46;;;;;;;16.95;7.75;;;;;;;;;;5064417;28;20084;-63
2022/05/05 08:30:43;;;;;;;23.65;9.75;;;;;;;;;;5082856;28;20515;-64
2022/05/05 08:33:10;;;;;;;25.43;10.63;;;;;;;;;;5066389;28;20061;-63
2022/05/05 08:35:38;;;;;;;23.30;10.23;;;;;;;;;;5065451;28;20131;-64
2022/05/05 08:38:04;;;;;;;26.23;11.25;;;;;;;;;;5057309;28;20100;-63
2022/05/05 08:40:33;;;;;;;21.30;10.18;;;;;;;;;;5060269;28;20115;-63
2022/05/05 08:42:59;;;;;;;21.08;10.45;;;;;;;;;;5050060;28;20541;-63
2022/05/05 08:45:31;;;;;;;26.75;12.50;;;;;;;;;;5047517;28;20056;-62
2022/05/05 08:47:59;;;;;;;24.55;12.40;;;;;;;;;;5054995;28;20556;-62
2022/05/05 08:50:25;;;;;;;27.45;12.50;;;;;;;;;;5057669;28;20127;-62
2022/05/05 08:52:52;;;;;;;28.67;12.80;;;;;;;;;;5065688;28;20080;-62
2022/05/05 08:55:19;;;;;;;27.88;13.45;;;;;;;;;;5073118;28;20234;-62
2022/05/05 08:57:45;;;;;;;27.67;14.32;;;;;;;;;;5084329;28;20048;-62
2022/05/05 09:00:13;;;;;;;27.55;14.13;;;;;;;;;;5075809;28;20088;-62
2022/05/05 09:02:40;;;;;;;28.10;15.20;;;;;;;;;;5068415;28;20069;-62
2022/05/05 09:05:07;;;;;;;31.88;16.80;;;;;;;;;;5060058;28;20058;-62
2022/05/05 09:07:52;;;;;;;31.40;17.13;;;;;;;;;;5049273;28;20120;-62
2022/05/05 09:10:19;;;;;;;35.60;16.85;;;;;;;;;;5052876;28;20123;-62
2022/05/05 09:12:56;;;;;;;33.55;16.70;;;;;;;;;;5068420;28;20577;-62
2022/05/05 09:15:28;;;;;;;37.95;16.98;;;;;;;;;;5062062;28;20147;-62
2022/05/05 09:17:55;;;;;;;31.65;17.05;;;;;;;;;;5068317;28;20147;-62
2022/05/05 09:20:46;;;;;;;33.78;17.25;;;;;;;;;;5055224;28;20083;-62
2022/05/05 09:23:32;;;;;;;28.95;15.90;;;;;;;;;;5048008;28;20104;-62
2022/05/05 09:25:59;;;;;;;33.33;17.05;;;;;;;;;;5056666;28;20107;-63
2022/05/05 09:28:33;;;;;;;32.60;16.77;;;;;;;;;;5067734;28;20131;-62
2022/05/05 09:31:06;;;;;;;33.53;15.48;;;;;;;;;;5053608;28;20516;-63
2022/05/05 09:33:33;;;;;;;29.63;14.90;;;;;;;;;;5048388;28;20499;-62
2022/05/05 09:36:01;;;;;;;26.02;14.35;;;;;;;;;;5048262;28;20139;-62
2022/05/05 09:38:47;;;;;;;26.52;14.88;;;;;;;;;;5056778;28;20514;-62
2022/05/05 09:41:13;;;;;;;31.83;16.17;;;;;;;;;;5067104;28;20139;-63
2022/05/05 09:43:39;;;;;;;27.10;15.27;;;;;;;;;;5059239;28;20053;-63
2022/05/05 09:46:39;;;;;;;29.17;15.05;;;;;;;;;;5067550;28;20231;-62
2022/05/05 09:49:07;;;;;;;23.98;13.15;;;;;;;;;;5018039;28;20057;-62
2022/05/05 09:51:35;;;;;;;23.63;13.40;;;;;;;;;;5048309;28;20508;-61
2022/05/05 09:59:36;;;;;;;27.52;15.77;;;;;;;;;;5054787;28;20145;-62
2022/05/05 10:02:07;;;;;;;26.08;13.82;;;;;;;;;;5059833;28;20064;-62
2022/05/05 10:04:36;;;;;;;25.70;13.65;;;;;;;;;;5057001;28;20052;-61
2022/05/05 10:07:03;;;;;;;24.40;13.32;;;;;;;;;;5057843;28;20054;-63
2022/05/05 10:09:30;;;;;;;25.27;13.02;;;;;;;;;;5059968;28;20095;-63
2022/05/05 10:11:57;;;;;;;23.58;12.35;;;;;;;;;;5068283;28;20101;-63
2022/05/05 10:14:25;;;;;;;27.02;14.45;;;;;;;;;;5067324;28;20198;-63
2022/05/05 10:16:52;;;;;;;30.70;16.60;;;;;;;;;;5051394;28;20574;-63
2022/05/05 10:19:18;;;;;;;32.00;16.33;;;;;;;;;;5053602;28;20052;-63
2022/05/05 10:21:59;;;;;;;33.05;16.80;;;;;;;;;;5059536;28;20312;-63
2022/05/05 10:24:34;;;;;;;29.95;16.42;;;;;;;;;;5047158;28;20173;-63
2022/05/05 10:27:01;;;;;;;28.25;15.32;;;;;;;;;;5046946;28;20156;-63
2022/05/05 10:29:30;;;;;;;28.42;16.15;;;;;;;;;;5063235;28;20056;-62
2022/05/05 10:32:12;;;;;;;30.27;17.00;;;;;;;;;;5060633;28;20108;-65
2022/05/05 10:34:42;;;;;;;33.13;17.52;;;;;;;;;;5047089;28;20053;-66
2022/05/05 10:37:10;;;;;;;32.72;17.75;;;;;;;;;;5047078;28;20093;-59
2022/05/05 10:39:47;;;;;;;34.88;18.17;;;;;;;;;;5063690;28;20107;-60
2022/05/05 10:42:14;;;;;;;36.70;18.23;;;;;;;;;;5063650;28;20053;-60
2022/05/05 10:44:59;;;;;;;29.92;17.67;;;;;;;;;;5061423;28;20071;-60
2022/05/05 10:47:26;;;;;;;32.67;17.70;;;;;;;;;;5064346;28;20104;-65
2022/05/05 10:49:53;;;;;;;29.20;17.98;;;;;;;;;;5047921;28;20085;-61
2022/05/05 10:52:20;;;;;;;;;;;;;;;;;;5052976;28;20049;-61
2022/05/05 10:54:47;;;;;;;32.15;16.13;;;;;;;;;;5065982;28;46292;-61
2022/05/05 10:57:26;;;;;;;30.92;16.20;;;;;;;;;;5066851;28;20096;-61
2022/05/05 11:00:07;;;;;;;32.05;17.40;;;;;;;;;;5046894;28;20487;-61
2022/05/05 11:02:34;;;;;;;28.25;15.32;;;;;;;;;;5055480;28;20080;-61
2022/05/05 11:05:23;;;;;;;29.88;17.50;;;;;;;;;;5066733;28;20065;-61
2022/05/05 11:07:49;;;;;;;27.80;17.35;;;;;;;;;;5062911;28;20553;-61
2022/05/05 11:10:34;;;;;;;30.08;17.90;;;;;;;;;;5046605;28;20148;-61
2022/05/05 11:13:01;;;;;;;29.35;17.38;;;;;;;;;;5047113;28;20455;-61
2022/05/05 11:24:09;;;;;;;33.03;18.02;;;;;;;;;;5035231;28;20092;-61
2022/05/05 11:26:36;;;;;;;36.13;19.05;;;;;;;;;;5046816;28;20073;-61
2022/05/05 11:29:02;;;;;;;33.78;21.25;;;;;;;;;;5053222;28;20518;-62
2022/05/05 11:31:30;;;;;;;36.08;21.35;;;;;;;;;;5046444;28;20057;-62
2022/05/05 11:34:00;;;;;;;34.65;21.48;;;;;;;;;;5050622;28;20523;-62
2022/05/05 11:36:28;;;;;;;30.48;19.25;;;;;;;;;;5050333;28;20081;-62
2022/05/05 11:38:55;;;;;;;36.80;19.63;;;;;;;;;;5060461;28;20083;-62
2022/05/05 11:41:22;;;;;;;30.48;18.35;;;;;;;;;;5068489;28;20052;-62
2022/05/05 11:46:34;;;;;;;35.22;19.83;;;;;;;;;;5067796;28;20084;-62
2022/05/05 11:49:00;;;;;;;32.95;19.50;;;;;;;;;;5054149;28;20052;-62
2022/05/05 11:51:28;;;;;;;29.27;18.40;;;;;;;;;;5049871;28;20571;-62
2022/05/05 11:53:59;;;;;;;30.55;18.65;;;;;;;;;;5062918;28;20087;-62
2022/05/05 11:56:29;;;;;;;40.22;20.83;;;;;;;;;;5057881;28;20507;-62
2022/05/05 12:01:52;;;;;;;31.88;20.02;;;;;;;;;;5069721;28;20045;-62
2022/05/05 12:04:19;;;;;;;33.60;19.98;;;;;;;;;;5051082;28;20169;-62
2022/05/05 12:06:46;;;;;;;35.90;19.88;;;;;;;;;;5059876;28;20049;-61
2022/05/05 12:09:13;;;;;;;31.15;19.27;;;;;;;;;;5058965;28;20077;-61
2022/05/05 12:11:39;;;;;;;29.63;19.00;;;;;;;;;;5066298;28;21060;-61
2022/05/05 12:14:06;;;;;;;34.60;20.73;;;;;;;;;;5067100;28;20085;-61
2022/05/05 12:16:34;;;;;;;29.27;17.20;;;;;;;;;;5049788;28;20060;-60
2022/05/05 12:19:08;;;;;;;29.75;17.58;;;;;;;;;;5051055;28;20062;-61
2022/05/05 12:21:52;;;;;;;35.22;18.30;;;;;;;;;;5057184;28;20495;-61
2022/05/05 12:24:22;;;;;;;32.27;17.37;;;;;;;;;;5058791;28;20049;-61
2022/05/05 12:26:49;;;;;;;29.15;17.48;;;;;;;;;;5048428;28;20099;-61
2022/05/05 12:29:17;;;;;;;30.13;19.52;;;;;;;;;;5049555;28;20116;-61
2022/05/05 12:31:50;;;;;;;28.38;17.23;;;;;;;;;;5050532;28;20081;-60
2022/05/05 12:34:32;;;;;;;30.58;18.25;;;;;;;;;;5051546;28;20053;-61
2022/05/05 12:37:11;;;;;;;27.77;15.48;;;;;;;;;;5049190;28;20103;-61
2022/05/05 12:39:49;;;;;;;21.67;13.05;;;;;;;;;;5049728;28;20054;-61
2022/05/05 12:42:16;;;;;;;25.08;13.73;;;;;;;;;;5048565;28;20100;-61
2022/05/05 12:44:43;;;;;;;18.02;10.50;;;;;;;;;;5064441;28;20076;-61
2022/05/05 12:47:10;;;;;;;23.65;14.27;;;;;;;;;;5053946;28;20291;-61
2022/05/05 12:49:37;;;;;;;21.98;13.98;;;;;;;;;;5049883;28;20088;-61
2022/05/05 12:52:04;;;;;;;22.20;13.60;;;;;;;;;;5057286;28;20167;-61
2022/05/05 13:00:03;;;;;;;16.20;9.82;;;;;;;;;;5065141;28;20500;-60
2022/05/05 13:02:50;;;;;;;17.27;10.45;;;;;;;;;;5049654;28;20064;-61
2022/05/05 13:05:17;;;;;;;18.38;11.05;;;;;;;;;;5046993;28;20085;-61
2022/05/05 13:07:43;;;;;;;20.48;12.80;;;;;;;;;;5048231;28;20115;-61
2022/05/05 13:10:09;;;;;;;20.52;13.65;;;;;;;;;;5052721;28;20623;-61
2022/05/05 13:12:36;;;;;;;21.23;12.75;;;;;;;;;;5064382;28;20131;-61
2022/05/05 13:15:02;;;;;;;19.95;12.73;;;;;;;;;;5060805;28;20138;-61
2022/05/05 13:17:29;;;;;;;19.38;11.80;;;;;;;;;;5064954;28;20045;-61
2022/05/05 13:19:55;;;;;;;22.98;12.68;;;;;;;;;;5060927;28;20057;-61
2022/05/05 13:22:22;;;;;;;24.15;13.27;;;;;;;;;;5052255;28;20053;-61
2022/05/05 13:24:48;;;;;;;18.08;11.18;;;;;;;;;;5057533;28;20108;-62
2022/05/05 13:27:15;;;;;;;27.63;15.88;;;;;;;;;;5047786;28;20089;-61
2022/05/05 13:29:43;;;;;;;25.75;15.60;;;;;;;;;;5055129;28;20081;-61
2022/05/05 13:32:10;;;;;;;25.02;15.60;;;;;;;;;;5085894;28;20090;-61
2022/05/05 13:34:36;;;;;;;24.10;14.80;;;;;;;;;;5066190;28;20053;-61
2022/05/05 13:37:03;;;;;;;24.50;14.82;;;;;;;;;;5068784;28;20476;-61
2022/05/05 13:39:29;;;;;;;22.60;14.82;;;;;;;;;;5055705;28;20133;-61
2022/05/05 13:41:56;;;;;;;27.70;17.75;;;;;;;;;;5061022;28;20085;-61
2022/05/05 13:44:22;;;;;;;26.73;17.00;;;;;;;;;;5063569;28;20576;-61
2022/05/05 13:46:51;;;;;;;24.20;14.50;;;;;;;;;;5047496;28;20076;-61
2022/05/05 13:49:17;;;;;;;22.65;14.98;;;;;;;;;;5055689;28;20080;-61
2022/05/05 13:51:43;;;;;;;22.67;14.73;;;;;;;;;;5068515;28;20073;-61
2022/05/05 13:54:30;;;;;;;25.15;14.75;;;;;;;;;;5047075;28;20447;-59
2022/05/05 13:56:56;;;;;;;25.13;14.15;;;;;;;;;;5051849;28;20081;-61
2022/05/05 13:59:23;;;;;;;24.60;13.80;;;;;;;;;;5052853;28;20099;-60
2022/05/05 14:01:49;;;;;;;20.17;13.88;;;;;;;;;;5051925;28;20085;-61
2022/05/05 14:04:15;;;;;;;21.45;14.77;;;;;;;;;;5060094;28;20059;-61
2022/05/05 14:06:42;;;;;;;27.33;15.90;;;;;;;;;;5053647;28;20089;-61
2022/05/05 14:12:13;;;;;;;21.02;12.25;;;;;;;;;;5053059;28;20076;-61
2022/05/05 14:14:39;;;;;;;22.55;13.15;;;;;;;;;;5062193;28;20061;-61
2022/05/05 14:17:06;;;;;;;17.33;11.73;;;;;;;;;;5068137;28;20107;-61
2022/05/05 14:19:32;;;;;;;19.55;12.23;;;;;;;;;;5068304;28;20537;-61
2022/05/05 14:22:00;;;;;;;25.13;15.52;;;;;;;;;;5067337;28;20084;-61
2022/05/05 14:24:27;;;;;;;24.85;15.20;;;;;;;;;;5066209;28;20049;-61
2022/05/05 14:26:54;;;;;;;25.55;14.98;;;;;;;;;;5049992;28;20054;-61
2022/05/05 14:29:20;;;;;;;27.05;16.20;;;;;;;;;;5050677;28;20496;-61
2022/05/05 14:31:50;;;;;;;26.25;14.05;;;;;;;;;;5059646;28;20152;-61
2022/05/05 14:34:16;;;;;;;20.88;12.48;;;;;;;;;;5059106;28;21883;-61
2022/05/05 14:36:43;;;;;;;13.88;9.05;;;;;;;;;;5052326;28;20085;-61
2022/05/05 14:39:09;;;;;;;12.52;8.35;;;;;;;;;;5048871;28;20061;-61
2022/05/05 14:41:36;;;;;;;25.90;16.20;;;;;;;;;;5058333;28;20096;-61
2022/05/05 14:44:03;;;;;;;23.38;16.40;;;;;;;;;;5067201;28;20092;-61
2022/05/05 14:46:29;;;;;;;22.98;14.25;;;;;;;;;;5053780;28;20061;-61
2022/05/05 14:48:57;;;;;;;24.02;16.90;;;;;;;;;;5049589;28;20590;-61
2022/05/05 14:51:23;;;;;;;24.23;15.02;;;;;;;;;;5058565;28;20164;-61
2022/05/05 14:53:50;;;;;;;23.38;15.15;;;;;;;;;;5054611;28;20119;-61
2022/05/05 14:56:17;;;;;;;25.83;16.65;;;;;;;;;;5065838;28;20077;-61
2022/05/05 14:58:44;;;;;;;22.42;14.52;;;;;;;;;;5047583;28;20057;-61
2022/05/05 15:01:10;;;;;;;24.98;15.68;;;;;;;;;;5046674;28;20053;-61
2022/05/05 15:03:38;;;;;;;24.90;15.95;;;;;;;;;;5046812;28;20049;-61
2022/05/05 15:06:05;;;;;;;24.20;15.68;;;;;;;;;;5045249;28;20107;-62
2022/05/05 15:08:31;;;;;;;22.90;15.23;;;;;;;;;;5050188;28;20089;-62
2022/05/05 15:10:58;;;;;;;19.42;13.60;;;;;;;;;;5058116;28;20144;-62
2022/05/05 15:13:24;;;;;;;25.67;14.52;;;;;;;;;;5066331;28;20584;-60
2022/05/05 15:15:53;;;;;;;21.30;13.40;;;;;;;;;;5065929;28;20052;-62
2022/05/05 15:18:20;;;;;;;19.52;12.20;;;;;;;;;;5070575;28;20087;-62
2022/05/05 15:20:46;;;;;;;19.42;12.60;;;;;;;;;;5060713;28;20149;-62
2022/05/05 15:23:13;;;;;;;20.70;12.38;;;;;;;;;;5069731;28;20503;-62
2022/05/05 15:25:39;;;;;;;17.67;12.15;;;;;;;;;;5068886;28;20543;-64
2022/05/05 15:28:06;;;;;;;19.77;13.18;;;;;;;;;;5069678;28;20057;-62
2022/05/05 15:30:33;;;;;;;21.75;13.27;;;;;;;;;;5070352;28;20077;-62